Time;durP1;ratioP1;P1;durP2;ratioP2;P2;SDS_P1;SDS_P2;PMS_P1;PMS_P2;Temp;Humidity;BMP_temperature;BMP_pressure;BME280_temperature;BME280_humidity;BME280_pressure;Samples;Min_cycle;Max_cycle;Signal;HPM_P1;HPM_P2
2023/04/28 00:02:25;;;;;;;35.73;26.80;;;27.50;98.20;;;;;;1700739;83;21182;-86
2023/04/28 00:04:57;;;;;;;33.83;26.82;;;27.50;98.20;;;;;;1749718;81;21158;-86
2023/04/28 00:07:31;;;;;;;32.15;26.07;;;27.50;98.00;;;;;;1703607;83;21183;-86
2023/04/28 00:10:02;;;;;;;34.55;26.85;;;27.60;98.10;;;;;;1735624;81;21612;-85
2023/04/28 00:12:33;;;;;;;34.55;27.00;;;27.60;97.90;;;;;;1705814;83;21203;-84
2023/04/28 00:15:05;;;;;;;37.03;27.60;;;27.60;97.80;;;;;;1732541;82;21249;-83
2023/04/28 00:17:36;;;;;;;35.40;28.17;;;27.70;97.70;;;;;;1706792;83;21258;-84
2023/04/28 00:20:08;;;;;;;35.17;26.85;;;27.80;97.70;;;;;;1737081;82;21154;-85
2023/04/28 00:22:39;;;;;;;32.80;26.27;;;27.80;97.50;;;;;;1735939;82;21223;-84
2023/04/28 00:25:11;;;;;;;34.38;26.48;;;27.90;97.30;;;;;;1701451;82;21729;-86
2023/04/28 00:27:43;;;;;;;34.48;25.80;;;28.00;97.20;;;;;;1733239;81;21178;-84
2023/04/28 00:30:18;;;;;;;29.82;25.20;;;28.10;97.10;;;;;;1742264;82;21083;-85
2023/04/28 00:32:48;;;;;;;36.77;25.77;;;28.10;96.90;;;;;;1711939;83;21153;-83
2023/04/28 00:35:21;;;;;;;30.85;24.52;;;28.20;96.60;;;;;;1756014;82;21165;-84
2023/04/28 00:37:52;;;;;;;31.20;25.70;;;28.20;96.30;;;;;;1743748;81;21078;-84
2023/04/28 00:40:23;;;;;;;36.05;26.30;;;28.30;96.20;;;;;;1752656;81;21147;-84
2023/04/28 00:42:54;;;;;;;33.53;25.40;;;28.30;96.40;;;;;;1749917;81;21166;-85
2023/04/28 00:45:26;;;;;;;34.85;25.25;;;28.30;96.20;;;;;;1739131;81;21296;-84
2023/04/28 00:47:57;;;;;;;32.93;26.27;;;28.40;96.70;;;;;;1721983;82;21707;-85
2023/04/28 00:50:43;;;;;;;31.60;25.48;;;28.40;96.20;;;;;;1741427;82;21224;-85
2023/04/28 00:53:23;;;;;;;31.48;25.15;;;28.40;96.20;;;;;;1747170;81;21237;-86
2023/04/28 00:55:55;;;;;;;29.90;25.32;;;28.40;96.20;;;;;;1743443;82;21662;-84
2023/04/28 00:58:27;;;;;;;39.30;27.20;;;28.40;96.20;;;;;;1751821;81;21173;-85
2023/04/28 01:01:05;;;;;;;39.00;28.50;;;28.40;96.30;;;;;;1741575;81;21201;-75
2023/04/28 01:03:37;;;;;;;33.75;27.42;;;28.40;96.70;;;;;;1743585;81;21154;-75
2023/04/28 01:06:10;;;;;;;36.38;27.22;;;28.50;96.20;;;;;;1753715;81;21206;-75
2023/04/28 01:08:42;;;;;;;41.80;29.18;;;28.60;96.00;;;;;;1735255;81;21645;-76
2023/04/28 01:11:13;;;;;;;39.95;30.52;;;28.60;96.20;;;;;;1743449;81;21163;-77
2023/04/28 01:13:45;;;;;;;35.60;27.15;;;28.70;96.20;;;;;;1718057;83;21152;-78
2023/04/28 01:16:16;;;;;;;46.40;27.13;;;28.80;96.10;;;;;;1716361;82;21123;-80
2023/04/28 01:18:49;;;;;;;39.27;26.33;;;28.90;96.10;;;;;;1715936;82;21623;-79
2023/04/28 01:21:36;;;;;;;35.43;27.00;;;29.00;95.90;;;;;;1713440;82;21204;-78
2023/04/28 01:24:05;;;;;;;93.80;30.12;;;29.10;95.60;;;;;;1733407;82;21160;-80
2023/04/28 01:26:36;;;;;;;34.83;26.62;;;29.20;95.40;;;;;;1734665;81;21201;-75
2023/04/28 01:29:07;;;;;;;36.33;24.87;;;29.30;95.20;;;;;;1743834;81;21138;-78
2023/04/28 01:31:38;;;;;;;34.83;23.80;;;29.40;95.00;;;;;;1727086;81;21238;-77
2023/04/28 01:34:10;;;;;;;36.70;25.43;;;29.50;94.40;;;;;;1699033;83;21188;-75
2023/04/28 01:36:41;;;;;;;33.13;24.32;;;29.50;94.20;;;;;;1711728;82;21237;-77
2023/04/28 01:39:12;;;;;;;29.10;24.32;;;29.60;94.20;;;;;;1714090;82;21174;-76
2023/04/28 01:41:44;;;;;;;32.20;24.90;;;29.70;94.10;;;;;;1745702;81;21201;-75
2023/04/28 01:44:15;;;;;;;33.48;26.12;;;29.80;93.90;;;;;;1748642;81;21620;-78
2023/04/28 01:46:46;;;;;;;30.32;24.12;;;29.90;93.30;;;;;;1748163;81;21272;-76
2023/04/28 01:49:18;;;;;;;33.67;23.75;;;30.00;93.20;;;;;;1717485;82;21164;-76
2023/04/28 01:51:49;;;;;;;33.88;24.40;;;30.10;92.90;;;;;;1749146;80;21221;-77
2023/04/28 01:54:21;;;;;;;32.83;23.92;;;30.20;93.20;;;;;;1732299;81;21119;-76
2023/04/28 01:56:52;;;;;;;26.10;22.13;;;30.30;92.90;;;;;;1745879;82;21137;-78
2023/04/28 01:59:26;;;;;;;25.97;20.88;;;30.30;92.30;;;;;;1730411;81;21546;-74
2023/04/28 02:01:58;;;;;;;33.08;22.05;;;30.40;92.10;;;;;;1748370;80;21443;-76
2023/04/28 02:04:29;;;;;;;28.30;20.72;;;30.50;92.00;;;;;;1752908;81;21177;-75
2023/04/28 02:07:01;;;;;;;24.67;20.05;;;30.70;91.90;;;;;;1686102;83;21462;-75
2023/04/28 02:09:32;;;;;;;28.12;19.95;;;30.80;91.50;;;;;;1748676;81;21203;-75
2023/04/28 02:12:03;;;;;;;27.50;19.57;;;30.90;90.90;;;;;;1752973;81;21157;-75
2023/04/28 02:14:34;;;;;;;22.62;18.70;;;31.10;90.00;;;;;;1730125;82;22052;-75
2023/04/28 02:17:04;;;;;;;23.60;21.07;;;;;;;;;;1738264;81;21198;-75
2023/04/28 02:19:38;;;;;;;23.40;18.62;;;;;;;;;;1728349;83;21170;-75
2023/04/28 02:22:09;;;;;;;23.00;19.02;;;31.50;99.90;;;;;;1746923;80;21223;-78
2023/04/28 02:24:41;;;;;;;23.85;19.67;;;31.50;90.30;;;;;;1732477;81;21212;-73
2023/04/28 02:27:12;;;;;;;22.30;18.40;;;31.60;86.70;;;;;;1749402;80;21652;-76
2023/04/28 02:29:43;;;;;;;25.45;19.07;;;31.70;86.20;;;;;;1762184;80;21223;-77
2023/04/28 02:32:14;;;;;;;24.72;19.15;;;31.90;85.30;;;;;;1715039;82;21647;-73
2023/04/28 02:34:45;;;;;;;20.48;16.23;;;32.10;85.30;;;;;;1723064;82;21713;-74
2023/04/28 02:37:17;;;;;;;18.90;16.02;;;32.20;82.60;;;;;;1747189;81;21271;-76
2023/04/28 02:39:49;;;;;;;17.73;15.55;;;32.30;80.40;;;;;;1753083;81;21243;-76
2023/04/28 02:42:20;;;;;;;19.95;16.62;;;32.40;81.30;;;;;;1719412;82;21157;-76
2023/04/28 02:44:51;;;;;;;22.32;16.62;;;32.40;78.90;;;;;;1743535;81;21160;-74
2023/04/28 02:47:22;;;;;;;21.35;16.75;;;32.50;78.80;;;;;;1759249;80;21889;-75
2023/04/28 02:49:56;;;;;;;21.27;17.20;;;32.50;78.50;;;;;;1716896;82;21237;-77
2023/04/28 02:52:28;;;;;;;20.75;16.57;;;32.60;77.10;;;;;;1747257;81;21214;-76
2023/04/28 02:54:59;;;;;;;22.77;17.17;;;32.60;77.70;;;;;;1750213;80;21134;-74
2023/04/28 02:57:31;;;;;;;17.73;15.93;;;32.60;78.00;;;;;;1714181;83;21269;-76
2023/04/28 03:00:04;;;;;;;21.52;16.35;;;32.70;77.80;;;;;;1762504;80;21174;-75
2023/04/28 03:02:35;;;;;;;21.05;15.95;;;32.90;77.10;;;;;;1749286;81;21926;-75
2023/04/28 03:05:07;;;;;;;20.88;17.05;;;33.00;76.40;;;;;;1748844;81;21237;-75
2023/04/28 03:07:38;;;;;;;22.58;16.73;;;33.20;76.90;;;;;;1685668;84;21179;-75
2023/04/28 03:10:10;;;;;;;20.82;16.55;;;33.20;76.70;;;;;;1757316;80;21195;-76
2023/04/28 03:12:42;;;;;;;25.35;17.98;;;33.40;75.80;;;;;;1750187;80;21227;-75
2023/04/28 03:15:13;;;;;;;23.30;18.67;;;33.50;74.30;;;;;;1718776;82;21177;-76
2023/04/28 03:17:45;;;;;;;22.00;17.02;;;33.50;75.10;;;;;;1746038;82;21646;-74
2023/04/28 03:20:17;;;;;;;19.45;15.90;;;33.50;76.40;;;;;;1754978;80;21712;-75
2023/04/28 03:22:48;;;;;;;18.32;15.72;;;33.60;73.00;;;;;;1715780;83;21215;-74
2023/04/28 03:25:20;;;;;;;19.67;16.27;;;33.60;72.20;;;;;;1745475;82;21174;-74
2023/04/28 03:27:51;;;;;;;18.73;15.68;;;33.50;72.40;;;;;;1748489;81;21598;-74
2023/04/28 03:30:22;;;;;;;19.23;14.93;;;33.60;71.70;;;;;;1689326;84;21318;-75
2023/04/28 03:32:53;;;;;;;18.87;15.25;;;33.50;71.70;;;;;;1744733;82;21391;-75
2023/04/28 03:35:25;;;;;;;18.82;15.70;;;33.70;71.40;;;;;;1746787;81;21165;-77
2023/04/28 03:37:57;;;;;;;21.23;17.42;;;33.80;71.40;;;;;;1715161;83;21193;-75
2023/04/28 03:40:28;;;;;;;18.52;15.15;;;33.80;71.00;;;;;;1742070;82;21241;-74
2023/04/28 03:43:00;;;;;;;22.07;15.68;;;33.90;70.60;;;;;;1750613;80;21625;-75
2023/04/28 03:45:32;;;;;;;19.00;15.35;;;34.10;69.50;;;;;;1748304;81;21218;-73
2023/04/28 03:48:03;;;;;;;18.00;14.68;;;34.20;69.40;;;;;;1754066;81;21193;-74
2023/04/28 03:50:39;;;;;;;20.62;16.50;;;34.30;68.00;;;;;;1726565;83;21174;-74
2023/04/28 03:53:10;;;;;;;20.30;16.02;;;34.40;68.30;;;;;;1732986;82;21182;-73
2023/04/28 03:55:41;;;;;;;18.67;14.83;;;34.40;68.10;;;;;;1745694;81;21452;-75
2023/04/28 03:58:12;;;;;;;21.33;14.50;;;34.50;68.30;;;;;;1728097;83;21800;-73
2023/04/28 04:00:44;;;;;;;19.77;15.35;;;34.60;67.50;;;;;;1742843;82;21705;-73
2023/04/28 04:03:16;;;;;;;21.80;14.68;;;34.70;66.00;;;;;;1728727;83;21273;-75
2023/04/28 04:05:47;;;;;;;23.92;14.80;;;34.80;66.20;;;;;;1745698;81;21198;-73
2023/04/28 04:08:19;;;;;;;17.90;15.55;;;34.70;66.80;;;;;;1753559;80;21249;-75
2023/04/28 04:10:51;;;;;;;20.77;15.75;;;34.70;67.40;;;;;;1732496;83;21112;-74
2023/04/28 04:13:23;;;;;;;25.00;19.02;;;34.60;67.40;;;;;;1745761;82;21214;-74
2023/04/28 04:15:54;;;;;;;19.55;15.43;;;34.60;68.60;;;;;;1748151;82;21168;-74
2023/04/28 04:18:26;;;;;;;21.60;16.77;;;34.70;67.80;;;;;;1732204;83;21317;-74
2023/04/28 04:20:57;;;;;;;17.12;14.38;;;34.80;67.90;;;;;;1746561;81;21274;-75
2023/04/28 04:23:29;;;;;;;30.12;21.50;;;35.00;67.20;;;;;;1728103;83;21262;-74
2023/04/28 04:26:00;;;;;;;27.27;21.00;;;35.10;68.70;;;;;;1742053;81;21186;-73
2023/04/28 04:28:31;;;;;;;18.30;14.83;;;35.20;67.30;;;;;;1724910;83;21207;-74
2023/04/28 04:31:02;;;;;;;19.65;15.53;;;35.30;65.40;;;;;;1745588;82;21127;-75
2023/04/28 04:33:36;;;;;;;15.13;13.45;;;35.40;64.70;;;;;;1744861;82;21281;-75
2023/04/28 04:36:08;;;;;;;16.65;13.80;;;35.50;62.60;;;;;;1734653;81;21748;-73
2023/04/28 04:38:39;;;;;;;18.42;14.87;;;35.50;62.70;;;;;;1725141;83;21119;-73
2023/04/28 04:41:10;;;;;;;18.60;14.68;;;35.60;63.00;;;;;;1748005;81;21106;-75
2023/04/28 04:43:42;;;;;;;17.92;14.05;;;35.60;61.70;;;;;;1733764;82;21246;-74
2023/04/28 04:46:13;;;;;;;18.77;15.15;;;35.60;62.60;;;;;;1748163;81;21178;-74
2023/04/28 04:48:45;;;;;;;23.62;14.43;;;35.70;60.60;;;;;;1715430;82;21167;-75
2023/04/28 04:51:17;;;;;;;17.15;13.22;;;35.70;60.40;;;;;;1749648;80;21168;-74
2023/04/28 04:53:48;;;;;;;21.55;13.85;;;35.70;59.40;;;;;;1754369;80;21181;-76
2023/04/28 04:56:19;;;;;;;20.30;15.78;;;35.70;59.60;;;;;;1750426;81;21730;-76
2023/04/28 04:58:52;;;;;;;15.65;13.48;;;35.70;60.10;;;;;;1713987;82;21232;-74
2023/04/28 05:01:24;;;;;;;20.43;13.15;;;35.80;60.60;;;;;;1757348;80;21758;-75
2023/04/28 05:03:55;;;;;;;14.28;12.78;;;36.00;59.60;;;;;;1753081;81;21120;-75
2023/04/28 05:06:26;;;;;;;16.93;13.78;;;36.10;58.80;;;;;;1751625;81;21167;-75
2023/04/28 05:08:58;;;;;;;17.80;14.60;;;36.20;60.40;;;;;;1723882;82;21232;-74
2023/04/28 05:11:29;;;;;;;18.60;15.10;;;36.20;61.30;;;;;;1711982;82;21208;-75
2023/04/28 05:14:00;;;;;;;18.62;13.40;;;36.10;61.30;;;;;;1714343;82;21270;-75
2023/04/28 05:16:31;;;;;;;17.42;13.90;;;36.10;58.70;;;;;;1731990;82;21172;-71
2023/04/28 05:19:03;;;;;;;18.23;13.55;;;36.10;57.80;;;;;;1743453;81;21232;-76
2023/04/28 05:21:34;;;;;;;17.05;14.30;;;36.00;58.40;;;;;;1754025;80;21213;-76
2023/04/28 05:24:06;;;;;;;20.05;14.20;;;35.90;58.20;;;;;;1719968;82;21276;-77
2023/04/28 05:26:37;;;;;;;22.65;17.37;;;35.90;58.00;;;;;;1750905;80;21229;-75
2023/04/28 05:29:09;;;;;;;16.40;14.70;;;35.90;58.50;;;;;;1754107;80;21213;-75
2023/04/28 05:31:40;;;;;;;15.90;13.83;;;35.90;58.20;;;;;;1725705;82;21149;-74
2023/04/28 05:34:12;;;;;;;16.17;14.30;;;35.90;57.40;;;;;;1747381;81;21159;-75
2023/04/28 05:36:44;;;;;;;17.32;15.25;;;36.10;57.60;;;;;;1748664;82;21219;-74
2023/04/28 05:39:15;;;;;;;18.32;14.18;;;36.20;59.40;;;;;;1752995;81;21196;-74
2023/04/28 05:41:49;;;;;;;16.30;13.38;;;36.30;57.70;;;;;;1713722;82;21151;-73
2023/04/28 05:44:21;;;;;;;20.12;15.78;;;36.40;56.70;;;;;;1734576;80;21215;-75
2023/04/28 05:46:52;;;;;;;17.10;14.75;;;36.40;56.50;;;;;;1690904;84;21242;-74
2023/04/28 05:49:24;;;;;;;18.52;13.20;;;36.50;56.40;;;;;;1670474;84;22856;-74
2023/04/28 05:51:55;;;;;;;17.40;13.60;;;36.50;55.90;;;;;;1686652;84;21244;-74
2023/04/28 05:54:26;;;;;;;15.48;13.85;;;36.60;56.60;;;;;;1694307;84;21132;-75
2023/04/28 05:56:57;;;;;;;15.65;13.43;;;36.50;55.90;;;;;;1686158;84;21676;-76
2023/04/28 05:59:31;;;;;;;16.07;14.40;;;36.60;55.20;;;;;;1662247;85;21308;-75
2023/04/28 06:02:02;;;;;;;17.02;14.45;;;36.60;56.10;;;;;;1674390;85;21224;-76
2023/04/28 06:04:33;;;;;;;16.17;13.48;;;36.70;57.20;;;;;;1655147;85;21213;-74
2023/04/28 06:07:04;;;;;;;19.17;13.95;;;36.70;56.60;;;;;;1642603;86;21699;-74
2023/04/28 06:09:36;;;;;;;16.60;13.45;;;36.80;56.50;;;;;;1685501;84;21188;-74
2023/04/28 06:12:08;;;;;;;17.20;14.65;;;36.90;56.80;;;;;;1707221;84;21183;-76
2023/04/28 06:14:39;;;;;;;16.75;13.85;;;36.90;55.40;;;;;;1700658;84;21217;-75
2023/04/28 06:17:10;;;;;;;17.35;12.73;;;36.90;54.60;;;;;;1695403;84;22114;-75
2023/04/28 06:19:42;;;;;;;17.23;14.60;;;36.90;55.20;;;;;;1676916;84;21214;-75
2023/04/28 06:22:14;;;;;;;16.07;13.50;;;36.80;54.90;;;;;;1689552;83;21234;-75
2023/04/28 06:24:46;;;;;;;16.27;14.58;;;36.70;55.50;;;;;;1682910;84;21228;-75
2023/04/28 06:27:17;;;;;;;22.15;15.25;;;36.70;57.90;;;;;;1707502;83;21783;-75
2023/04/28 06:29:48;;;;;;;15.60;14.00;;;36.60;59.30;;;;;;1701639;83;21749;-73
2023/04/28 06:32:20;;;;;;;18.87;14.70;;;36.60;59.60;;;;;;1690060;84;21301;-74
2023/04/28 06:34:51;;;;;;;19.92;14.70;;;36.60;59.50;;;;;;1684452;84;21256;-74
2023/04/28 06:37:24;;;;;;;21.12;16.35;;;36.50;59.00;;;;;;1690407;82;21238;-73
2023/04/28 06:39:56;;;;;;;15.18;13.68;;;36.50;59.40;;;;;;1699300;83;21210;-72
2023/04/28 06:42:31;;;;;;;15.43;13.83;;;36.50;59.60;;;;;;1698981;83;21212;-75
2023/04/28 06:45:02;;;;;;;15.75;14.05;;;36.40;59.40;;;;;;1697626;81;21586;-74
2023/04/28 06:47:37;;;;;;;15.68;14.05;;;36.40;60.20;;;;;;1740830;81;21287;-75
2023/04/28 06:50:09;;;;;;;17.33;14.63;;;36.40;60.80;;;;;;1728965;81;21221;-73
2023/04/28 06:52:45;;;;;;;15.53;13.70;;;36.40;60.20;;;;;;1685844;84;21157;-75
2023/04/28 06:55:17;;;;;;;16.52;14.03;;;36.40;60.40;;;;;;1723988;81;21191;-75
2023/04/28 06:57:48;;;;;;;19.50;14.68;;;36.30;60.60;;;;;;1748438;81;21095;-74
2023/04/28 07:00:20;;;;;;;19.60;14.20;;;36.30;60.70;;;;;;1731472;82;21193;-74
2023/04/28 07:02:51;;;;;;;17.73;14.25;;;36.30;60.90;;;;;;1740902;81;21222;-75
2023/04/28 07:05:22;;;;;;;16.15;14.25;;;36.20;60.50;;;;;;1733263;82;21761;-75
2023/04/28 07:07:54;;;;;;;15.95;13.75;;;36.10;60.90;;;;;;1747908;81;21699;-75
2023/04/28 07:10:25;;;;;;;19.45;15.68;;;36.00;60.50;;;;;;1717585;82;21194;-75
2023/04/28 07:12:56;;;;;;;25.10;15.05;;;35.90;60.10;;;;;;1716496;82;21233;-74
2023/04/28 07:15:27;;;;;;;17.92;14.30;;;35.90;61.00;;;;;;1732477;81;21238;-75
2023/04/28 07:17:59;;;;;;;16.17;14.47;;;36.00;61.10;;;;;;1742944;81;22082;-75
2023/04/28 07:20:30;;;;;;;17.60;15.43;;;36.00;59.60;;;;;;1729562;81;21226;-74
2023/04/28 07:23:01;;;;;;;16.37;14.75;;;36.10;59.30;;;;;;1746954;81;21161;-75
2023/04/28 07:25:34;;;;;;;16.00;14.33;;;36.10;59.60;;;;;;1736175;81;21225;-75
2023/04/28 07:28:05;;;;;;;16.73;14.33;;;36.10;59.80;;;;;;1735428;81;21259;-74
2023/04/28 07:30:37;;;;;;;18.27;14.38;;;36.10;59.60;;;;;;1744141;81;21140;-75
2023/04/28 07:33:08;;;;;;;16.35;13.70;;;36.10;59.60;;;;;;1724801;81;21175;-75
2023/04/28 07:35:39;;;;;;;16.30;14.30;;;36.10;59.70;;;;;;1716247;82;21644;-74
2023/04/28 07:38:10;;;;;;;15.55;13.93;;;36.10;59.60;;;;;;1751329;81;21176;-74
2023/04/28 07:40:43;;;;;;;18.05;13.93;;;36.10;59.50;;;;;;1728402;81;21763;-73
2023/04/28 07:43:17;;;;;;;16.48;14.50;;;36.10;59.30;;;;;;1740963;81;21170;-75
2023/04/28 07:45:48;;;;;;;15.98;13.43;;;36.10;59.40;;;;;;1722863;81;21166;-75
2023/04/28 07:48:20;;;;;;;15.60;14.00;;;36.10;60.40;;;;;;1713470;82;21702;-74
2023/04/28 07:50:52;;;;;;;19.20;14.15;;;36.20;60.00;;;;;;1698515;82;21185;-74
2023/04/28 07:53:23;;;;;;;16.27;13.68;;;36.10;59.10;;;;;;1712604;82;21481;-76
2023/04/28 07:55:55;;;;;;;20.10;15.53;;;36.10;59.70;;;;;;1701490;82;21628;-75
2023/04/28 07:58:27;;;;;;;16.52;14.75;;;36.10;59.50;;;;;;1714327;82;21224;-73
2023/04/28 08:00:59;;;;;;;18.52;14.55;;;36.10;59.60;;;;;;1697478;83;21173;-73
2023/04/28 08:03:30;;;;;;;15.85;14.18;;;36.10;60.00;;;;;;1715660;82;21303;-74
2023/04/28 08:06:05;;;;;;;18.20;13.70;;;36.00;59.90;;;;;;1700083;84;21206;-73
2023/04/28 08:08:37;;;;;;;16.82;13.80;;;36.00;60.60;;;;;;1721243;82;21192;-75
2023/04/28 08:11:09;;;;;;;19.42;14.85;;;35.90;60.00;;;;;;1697238;82;21204;-73
2023/04/28 08:13:41;;;;;;;16.85;15.05;;;35.90;59.90;;;;;;1718515;82;21093;-73
2023/04/28 08:16:13;;;;;;;15.23;13.55;;;36.00;60.30;;;;;;1701015;82;21126;-75
2023/04/28 08:18:46;;;;;;;19.67;13.65;;;36.00;59.70;;;;;;1720201;82;21165;-73
2023/04/28 08:21:17;;;;;;;16.40;14.23;;;36.00;59.90;;;;;;1725054;82;21189;-73
2023/04/28 08:23:49;;;;;;;16.37;14.68;;;36.00;59.90;;;;;;1702773;82;21604;-74
2023/04/28 08:26:20;;;;;;;17.30;14.60;;;36.00;59.80;;;;;;1710322;84;21817;-74
2023/04/28 08:28:52;;;;;;;17.75;14.85;;;36.00;59.60;;;;;;1704558;82;21270;-74
2023/04/28 08:31:24;;;;;;;22.27;16.20;;;36.00;59.60;;;;;;1708784;82;21190;-74
2023/04/28 08:33:55;;;;;;;18.40;15.28;;;35.90;60.10;;;;;;1711106;82;21267;-74
2023/04/28 08:36:31;;;;;;;38.23;17.15;;;35.90;60.60;;;;;;1724688;82;21172;-74
2023/04/28 08:39:02;;;;;;;18.48;14.80;;;35.90;59.50;;;;;;1733028;82;21182;-73
2023/04/28 08:41:35;;;;;;;19.55;15.65;;;35.90;59.30;;;;;;1719078;82;21192;-74
2023/04/28 08:44:10;;;;;;;17.95;15.40;;;35.90;60.00;;;;;;1709980;82;21224;-77
2023/04/28 08:46:43;;;;;;;23.92;16.05;;;35.90;59.40;;;;;;1734157;81;21174;-75
2023/04/28 08:49:16;;;;;;;18.75;15.53;;;35.90;59.60;;;;;;1745192;81;21264;-75
2023/04/28 08:51:53;;;;;;;17.52;14.53;;;35.90;60.20;;;;;;1728659;82;21155;-75
2023/04/28 08:54:42;;;;;;;;;;;35.90;59.00;;;;;;1736480;81;21096;-74
2023/04/28 08:57:14;;;;;;;19.20;15.55;;;35.90;59.70;;;;;;1790511;79;20160;-73
2023/04/28 08:59:45;;;;;;;18.25;15.08;;;35.90;58.00;;;;;;1798695;79;21231;-74
2023/04/28 09:02:17;;;;;;;21.33;14.83;;;36.00;57.60;;;;;;1794014;79;21178;-73
2023/04/28 09:04:48;;;;;;;18.07;15.72;;;36.00;57.50;;;;;;1795307;79;21278;-75
2023/04/28 09:07:20;;;;;;;19.42;16.60;;;36.00;59.10;;;;;;1795146;80;21555;-73
2023/04/28 09:09:53;;;;;;;18.73;16.48;;;35.90;58.20;;;;;;1794471;79;21230;-75
2023/04/28 09:12:26;;;;;;;17.07;15.30;;;35.90;58.90;;;;;;1802384;79;21238;-75
2023/04/28 09:15:08;;;;;;;18.65;16.12;;;35.80;58.60;;;;;;1798427;79;21194;-74
2023/04/28 09:17:32;;;;;;;18.32;16.05;;;35.80;59.30;;;;;;1794905;79;21082;-75
2023/04/28 09:20:05;;;;;;;18.87;15.85;;;35.80;59.40;;;;;;1796540;79;21117;-75
2023/04/28 09:22:36;;;;;;;20.68;16.02;;;35.80;58.50;;;;;;1800722;78;21130;-76
2023/04/28 09:25:15;;;;;;;20.95;16.75;;;35.80;58.40;;;;;;1814908;78;21612;-74
2023/04/28 09:27:46;;;;;;;20.50;16.35;;;35.80;58.80;;;;;;1796866;80;21617;-76
2023/04/28 09:30:19;;;;;;;21.42;17.30;;;35.80;59.70;;;;;;1797061;78;21176;-76
2023/04/28 09:33:07;;;;;;;22.35;17.02;;;35.80;59.50;;;;;;1793509;80;21154;-74
2023/04/28 09:35:48;;;;;;;21.62;16.82;;;35.80;59.80;;;;;;1800146;79;21610;-87
2023/04/28 09:38:19;;;;;;;18.82;16.02;;;35.80;59.30;;;;;;1797131;79;21186;-87
2023/04/28 09:41:01;;;;;;;19.45;16.57;;;35.70;59.10;;;;;;1792321;79;21118;-86
2023/04/28 09:43:37;;;;;;;19.25;17.27;;;35.70;58.80;;;;;;1791119;80;21205;-84
2023/04/28 09:46:08;;;;;;;24.05;17.40;;;35.70;59.30;;;;;;1776101;80;21627;-84
2023/04/28 09:48:41;;;;;;;20.68;17.50;;;35.70;59.30;;;;;;1796939;80;21181;-85
2023/04/28 09:51:14;;;;;;;19.70;17.55;;;35.70;59.30;;;;;;1798469;80;21079;-86
2023/04/28 09:53:45;;;;;;;19.98;17.75;;;35.70;59.50;;;;;;1797366;78;21075;-83
2023/04/28 09:56:19;;;;;;;19.00;16.95;;;35.60;59.60;;;;;;1797273;80;21208;-85
2023/04/28 09:58:52;;;;;;;19.10;17.17;;;35.60;59.70;;;;;;1795231;80;21153;-75
2023/04/28 10:01:29;;;;;;;19.17;17.17;;;35.60;60.00;;;;;;1796311;79;21271;-76
2023/04/28 10:04:01;;;;;;;23.40;20.00;;;35.50;59.70;;;;;;1793366;80;21518;-77
2023/04/28 10:06:35;;;;;;;21.15;18.95;;;35.50;59.80;;;;;;1797630;78;21185;-79
2023/04/28 10:09:07;;;;;;;20.88;17.62;;;35.50;59.90;;;;;;1798144;78;21148;-76
2023/04/28 10:11:39;;;;;;;20.02;17.55;;;35.50;60.00;;;;;;1793987;80;21158;-78
2023/04/28 10:14:11;;;;;;;21.75;16.93;;;35.40;59.90;;;;;;1797246;78;21164;-77
2023/04/28 10:16:43;;;;;;;20.45;16.65;;;35.40;60.10;;;;;;1793794;80;21233;-77
2023/04/28 10:19:14;;;;;;;18.25;16.45;;;35.40;60.30;;;;;;1792968;80;21138;-77
2023/04/28 10:21:48;;;;;;;19.30;16.30;;;35.30;61.70;;;;;;1797169;80;21236;-77
2023/04/28 10:24:28;;;;;;;21.65;17.85;;;35.30;60.40;;;;;;1792246;79;21133;-77
2023/04/28 10:27:10;;;;;;;22.22;16.48;;;35.30;60.40;;;;;;1792868;80;21220;-76
2023/04/28 10:29:41;;;;;;;24.37;17.90;;;35.30;60.90;;;;;;1792872;80;21657;-77
2023/04/28 10:32:29;;;;;;;22.02;16.48;;;35.20;60.40;;;;;;1791321;80;22450;-77
2023/04/28 10:35:15;;;;;;;23.57;17.02;;;35.30;60.60;;;;;;1792676;79;21645;-77
2023/04/28 10:38:05;;;;;;;20.17;16.55;;;35.20;60.80;;;;;;1791811;80;21177;-75
2023/04/28 10:40:37;;;;;;;24.37;19.82;;;35.20;60.50;;;;;;1797388;80;21153;-74
2023/04/28 10:43:11;;;;;;;22.22;17.60;;;35.20;60.80;;;;;;1795593;80;21212;-75
2023/04/28 10:46:00;;;;;;;20.23;17.27;;;35.10;60.60;;;;;;1794786;80;21143;-76
2023/04/28 10:48:35;;;;;;;23.20;18.45;;;35.10;60.80;;;;;;1796559;80;21208;-79
2023/04/28 10:51:11;;;;;;;22.70;18.00;;;35.10;61.10;;;;;;1795671;80;21228;-76
2023/04/28 10:53:51;;;;;;;22.65;18.87;;;35.10;61.40;;;;;;1758725;81;21203;-74
2023/04/28 10:56:24;;;;;;;22.80;20.00;;;35.00;61.00;;;;;;1724981;83;21724;-76
2023/04/28 10:59:00;;;;;;;22.75;19.42;;;35.00;61.20;;;;;;1788429;80;21190;-75
2023/04/28 11:01:33;;;;;;;22.02;18.73;;;34.90;61.40;;;;;;1802585;78;21158;-76
2023/04/28 11:04:16;;;;;;;20.88;16.97;;;35.00;61.60;;;;;;1796491;80;21166;-76
2023/04/28 11:06:46;;;;;;;21.15;17.57;;;34.90;61.80;;;;;;1794167;78;21137;-77
2023/04/28 11:09:20;;;;;;;21.20;16.75;;;34.80;61.70;;;;;;1794055;79;21217;-76
2023/04/28 11:12:09;;;;;;;20.15;16.85;;;34.80;61.30;;;;;;1797194;78;21142;-76
2023/04/28 11:14:40;;;;;;;25.00;17.25;;;34.80;61.70;;;;;;1795104;80;21214;-75
2023/04/28 11:17:15;;;;;;;20.88;17.10;;;34.80;61.80;;;;;;1794413;78;21154;-75
2023/04/28 11:19:47;;;;;;;21.45;17.42;;;34.80;61.70;;;;;;1797538;79;21680;-76
2023/04/28 11:22:21;;;;;;;20.50;17.00;;;34.70;61.80;;;;;;1791174;80;21744;-75
2023/04/28 11:25:00;;;;;;;20.10;17.98;;;34.70;62.00;;;;;;1799557;79;21147;-76
2023/04/28 11:27:33;;;;;;;23.52;18.23;;;34.70;62.10;;;;;;1799977;79;21187;-75
2023/04/28 11:30:06;;;;;;;24.72;17.85;;;34.70;62.40;;;;;;1793011;79;21548;-75
2023/04/28 11:32:40;;;;;;;24.45;19.37;;;34.70;62.50;;;;;;1755902;79;21218;-74
2023/04/28 11:35:11;;;;;;;29.63;22.75;;;34.60;62.70;;;;;;1795454;79;21271;-74
2023/04/28 11:37:45;;;;;;;23.87;18.57;;;34.60;62.70;;;;;;1795686;80;21964;-74
2023/04/28 11:40:17;;;;;;;22.73;18.65;;;34.60;63.00;;;;;;1794917;79;21118;-73
2023/04/28 11:42:49;;;;;;;21.68;18.65;;;34.50;63.00;;;;;;1793745;80;21170;-75
2023/04/28 11:45:21;;;;;;;22.77;17.25;;;34.60;63.40;;;;;;1801654;78;21202;-76
2023/04/28 11:47:52;;;;;;;22.40;18.50;;;34.50;63.40;;;;;;1803210;78;21098;-75
2023/04/28 11:50:37;;;;;;;23.73;19.62;;;34.50;63.60;;;;;;1797056;78;21169;-74
2023/04/28 11:53:09;;;;;;;24.65;20.00;;;34.50;63.80;;;;;;1795210;78;21244;-75
2023/04/28 11:55:40;;;;;;;25.05;21.60;;;34.40;63.90;;;;;;1801209;78;21246;-76
2023/04/28 11:58:22;;;;;;;27.77;20.62;;;34.40;64.10;;;;;;1786171;79;21488;-73
2023/04/28 12:01:14;;;;;;;22.93;20.52;;;34.30;64.10;;;;;;1786305;79;21709;-76
2023/04/28 12:03:46;;;;;;;28.20;21.15;;;34.30;64.40;;;;;;1781290;79;21704;-74
2023/04/28 12:06:20;;;;;;;27.85;21.57;;;34.30;64.80;;;;;;1788573;79;21084;-74
2023/04/28 12:08:53;;;;;;;30.77;22.95;;;34.30;65.00;;;;;;1779155;80;21201;-76
2023/04/28 12:11:24;;;;;;;27.60;22.10;;;34.30;65.40;;;;;;1769986;79;21098;-76
2023/04/28 12:14:06;;;;;;;28.57;22.13;;;34.30;65.40;;;;;;1763789;81;21152;-76
2023/04/28 12:16:47;;;;;;;32.20;22.77;;;34.30;65.50;;;;;;1736031;81;21170;-75
2023/04/28 12:19:19;;;;;;;29.37;23.55;;;34.20;65.60;;;;;;1739048;81;21225;-73
2023/04/28 12:22:04;;;;;;;30.92;23.20;;;34.20;65.70;;;;;;1772839;79;21141;-75
2023/04/28 12:24:35;;;;;;;30.50;23.83;;;34.20;65.80;;;;;;1765931;80;21188;-76
2023/04/28 12:27:24;;;;;;;27.15;23.77;;;34.20;65.80;;;;;;1765380;80;21356;-76
2023/04/28 12:29:57;;;;;;;32.60;23.47;;;34.10;65.70;;;;;;1732783;82;21190;-75
2023/04/28 12:32:45;;;;;;;35.50;26.65;;;34.10;65.90;;;;;;1763734;80;21157;-75
2023/04/28 12:35:14;;;;;;;35.08;27.07;;;34.10;66.00;;;;;;1764417;80;21201;-74
2023/04/28 12:37:45;;;;;;;36.03;29.63;;;34.10;66.20;;;;;;1767039;79;21152;-77
2023/04/28 12:40:17;;;;;;;32.48;28.40;;;34.10;66.30;;;;;;1736119;81;21256;-76
2023/04/28 12:42:48;;;;;;;36.98;29.48;;;34.00;66.30;;;;;;1766519;79;21088;-75
2023/04/28 12:45:20;;;;;;;36.68;29.80;;;34.10;66.70;;;;;;1768828;79;21218;-74
2023/04/28 12:47:52;;;;;;;37.48;29.18;;;34.00;66.60;;;;;;1774676;79;21628;-74
2023/04/28 12:50:24;;;;;;;42.40;29.00;;;34.00;66.80;;;;;;1768357;79;21325;-76
2023/04/28 12:52:56;;;;;;;41.05;30.43;;;34.00;66.80;;;;;;1765970;80;21227;-85
2023/04/28 12:55:29;;;;;;;38.88;29.50;;;34.00;67.00;;;;;;1761936;81;21186;-84
2023/04/28 12:58:00;;;;;;;35.58;30.20;;;34.00;67.00;;;;;;1766200;79;21161;-85